createdAt,value
2023-03-21T00:01:00.413Z,33.10
2023-03-21T00:03:29.149Z,33.20
2023-03-21T00:05:57.919Z,33.00
2023-03-21T00:08:27.056Z,32.90
2023-03-21T00:11:02.220Z,31.80
2023-03-21T00:13:33.030Z,33.70
2023-03-21T00:19:18.217Z,31.20
2023-03-21T00:22:06.611Z,34.40
2023-03-21T00:24:37.684Z,33.70
2023-03-21T00:27:44.829Z,26.50
2023-03-21T00:29:57.339Z,31.20
2023-03-21T00:32:26.473Z,30.70
2023-03-21T00:35:11.784Z,32.40
2023-03-21T00:37:44.125Z,30.60
2023-03-21T00:40:24.951Z,31.30
2023-03-21T00:42:55.194Z,30.10
2023-03-21T00:48:37.372Z,32.80
2023-03-21T00:51:15.684Z,31.70
2023-03-21T00:53:44.399Z,32.00
2023-03-21T00:56:12.961Z,32.30
2023-03-21T00:58:41.656Z,30.50
2023-03-21T01:01:10.900Z,29.50
2023-03-21T01:03:42.983Z,30.10
2023-03-21T01:06:14.140Z,28.90
2023-03-21T01:08:52.322Z,32.10
2023-03-21T01:11:28.954Z,31.10
2023-03-21T01:14:10.722Z,28.40
2023-03-21T01:16:47.195Z,30.90
2023-03-21T01:19:26.295Z,30.70
2023-03-21T01:21:58.590Z,30.10
2023-03-21T01:24:27.622Z,29.60
2023-03-21T01:26:56.904Z,29.40
2023-03-21T01:29:25.715Z,28.80
2023-03-21T01:31:54.286Z,29.80
2023-03-21T01:34:22.942Z,29.80
2023-03-21T01:36:52.356Z,31.50
2023-03-21T01:39:22.662Z,30.70
2023-03-21T01:41:52.044Z,31.30
2023-03-21T01:44:29.145Z,31.30
2023-03-21T01:47:13.426Z,31.90
2023-03-21T01:49:49.797Z,30.40
2023-03-21T01:54:40.659Z,34.20
2023-03-21T01:59:50.971Z,30.70
2023-03-21T02:03:18.893Z,33.00
2023-03-21T02:06:09.153Z,33.00
2023-03-21T02:08:40.129Z,31.90
2023-03-21T02:13:41.758Z,30.90
2023-03-21T02:16:47.898Z,30.10
2023-03-21T02:19:52.687Z,31.00
2023-03-21T02:22:55.892Z,31.20
2023-03-21T02:28:35.318Z,23.40
2023-03-21T02:31:28.985Z,29.50
2023-03-21T02:35:07.900Z,30.00
2023-03-21T02:38:11.053Z,29.90
2023-03-21T02:43:58.641Z,25.00
2023-03-21T02:46:48.876Z,25.70
2023-03-21T02:49:31.706Z,27.70
2023-03-21T02:52:12.157Z,26.50
2023-03-21T02:54:48.323Z,25.20
2023-03-21T02:57:19.837Z,24.30
2023-03-21T02:59:55.452Z,27.10
2023-03-21T03:02:31.260Z,24.40
2023-03-21T03:05:00.019Z,30.50
2023-03-21T03:08:05.755Z,30.40
2023-03-21T03:11:14.313Z,29.30
2023-03-21T03:13:58.165Z,28.50
2023-03-21T03:16:37.565Z,28.90
2023-03-21T03:19:10.568Z,31.40
2023-03-21T03:21:56.240Z,29.20
2023-03-21T03:24:39.274Z,29.40
2023-03-21T03:27:15.178Z,16.10
2023-03-21T03:29:46.630Z,30.20
2023-03-21T03:32:29.867Z,31.20
2023-03-21T03:34:59.053Z,25.30
2023-03-21T03:37:37.428Z,28.40
2023-03-21T03:40:19.420Z,24.80
2023-03-21T03:42:57.910Z,27.70
2023-03-21T03:45:47.127Z,27.60
2023-03-21T03:48:51.455Z,31.90
2023-03-21T03:51:36.857Z,32.80
2023-03-21T03:54:54.252Z,32.10
2023-03-21T03:57:25.798Z,25.30
2023-03-21T03:59:53.425Z,26.30
2023-03-21T04:02:27.294Z,21.20
2023-03-21T04:04:57.322Z,25.80
2023-03-21T04:07:24.718Z,27.40
2023-03-21T04:09:54.128Z,29.70
2023-03-21T04:12:21.490Z,33.20
2023-03-21T04:15:32.683Z,32.30
2023-03-21T04:18:11.529Z,27.90
2023-03-21T04:20:39.165Z,29.50
2023-03-21T04:23:07.360Z,25.40
2023-03-21T04:25:38.730Z,24.80
2023-03-21T04:28:08.018Z,27.80
2023-03-21T04:30:51.889Z,26.50
2023-03-21T04:33:26.308Z,25.50
2023-03-21T04:35:56.342Z,28.10
2023-03-21T04:38:30.980Z,25.80
2023-03-21T04:41:04.084Z,27.00
2023-03-21T04:43:33.554Z,31.70
2023-03-21T04:46:02.462Z,26.80
2023-03-21T04:48:30.079Z,23.40
2023-03-21T04:51:00.211Z,26.00
2023-03-21T04:53:29.607Z,27.30
2023-03-21T04:55:58.101Z,27.70
2023-03-21T04:58:27.031Z,25.80
2023-03-21T05:00:54.993Z,28.00
2023-03-21T05:03:24.018Z,31.10
2023-03-21T05:05:54.778Z,27.70
2023-03-21T05:08:22.460Z,28.10
2023-03-21T05:10:51.696Z,31.10
2023-03-21T05:13:20.299Z,25.60
2023-03-21T05:17:07.404Z,28.40
2023-03-21T05:22:24.266Z,27.20
2023-03-21T05:24:55.867Z,32.50
2023-03-21T05:28:08.352Z,32.00
2023-03-21T05:30:36.326Z,29.80
2023-03-21T05:33:04.282Z,35.90
2023-03-21T05:35:31.838Z,31.60
2023-03-21T05:38:03.382Z,35.90
2023-03-21T05:43:04.899Z,36.30
2023-03-21T05:45:40.371Z,36.00
2023-03-21T05:48:23.088Z,33.50
2023-03-21T05:51:12.816Z,30.10
2023-03-21T05:54:26.199Z,34.60
2023-03-21T05:56:54.703Z,31.30
2023-03-21T05:59:31.754Z,31.30
2023-03-21T06:01:59.647Z,26.40
2023-03-21T06:04:28.275Z,24.20
2023-03-21T06:06:59.575Z,29.50
2023-03-21T06:09:31.223Z,28.70
2023-03-21T06:12:27.305Z,30.30
2023-03-21T06:15:26.152Z,27.70
2023-03-21T06:18:20.985Z,28.50
2023-03-21T06:23:34.028Z,27.60
2023-03-21T06:26:02.650Z,30.10
2023-03-21T06:28:32.831Z,28.60
2023-03-21T06:31:00.305Z,27.80
2023-03-21T06:33:57.258Z,26.00
2023-03-21T06:36:54.276Z,27.20
2023-03-21T06:39:26.015Z,27.70
2023-03-21T06:42:22.606Z,27.30
2023-03-21T06:44:50.645Z,28.60
2023-03-21T06:47:19.281Z,32.00
2023-03-21T06:50:53.400Z,30.80
2023-03-21T06:53:28.881Z,33.30
2023-03-21T06:56:35.274Z,32.80
2023-03-21T06:59:42.801Z,26.50
2023-03-21T07:02:16.250Z,31.40
2023-03-21T07:04:54.306Z,33.40
2023-03-21T07:07:32.401Z,32.40
2023-03-21T07:09:59.967Z,34.50
2023-03-21T07:16:14.499Z,32.20
2023-03-21T07:22:42.684Z,32.40
2023-03-21T07:25:55.660Z,36.00
2023-03-21T07:28:23.718Z,30.70
2023-03-21T07:31:46.927Z,31.00
2023-03-21T07:34:32.517Z,30.70
2023-03-21T07:37:16.286Z,29.50
2023-03-21T07:40:26.003Z,30.10
2023-03-21T07:42:55.695Z,29.10
2023-03-21T07:45:35.399Z,28.00
2023-03-21T07:48:46.792Z,30.40
2023-03-21T07:51:14.119Z,30.80
2023-03-21T07:53:47.883Z,29.00
2023-03-21T07:56:41.699Z,27.80
2023-03-21T07:59:09.396Z,29.60
2023-03-21T08:01:37.204Z,27.00
2023-03-21T08:04:30.160Z,25.90
2023-03-21T08:17:05.765Z,22.80
2023-03-21T08:19:33.186Z,22.00
2023-03-21T08:22:26.479Z,21.60
2023-03-21T08:25:32.776Z,22.90
2023-03-21T08:28:36.355Z,22.50
2023-03-21T08:35:01.998Z,20.50
2023-03-21T08:38:03.590Z,22.80
2023-03-21T08:41:14.790Z,22.90
2023-03-21T08:47:30.937Z,20.00
2023-03-21T08:50:49.817Z,21.60
2023-03-21T08:54:09.778Z,22.60
2023-03-21T08:56:38.597Z,23.10
2023-03-21T08:59:20.787Z,23.00
2023-03-21T09:01:48.277Z,22.30
2023-03-21T09:04:27.481Z,23.20
2023-03-21T09:07:26.133Z,22.00
2023-03-21T09:10:25.677Z,22.60
2023-03-21T09:13:21.600Z,24.20
2023-03-21T09:16:43.616Z,25.70
2023-03-21T09:19:12.740Z,26.10
2023-03-21T09:22:06.308Z,26.30
2023-03-21T09:29:00.275Z,22.50
2023-03-21T09:31:29.944Z,23.50
2023-03-21T09:33:58.735Z,22.30
2023-03-21T09:36:27.111Z,26.30
2023-03-21T09:38:56.744Z,26.10
2023-03-21T09:41:57.301Z,27.30
2023-03-21T09:44:58.917Z,25.40
2023-03-21T09:47:34.662Z,25.10
2023-03-21T09:50:27.052Z,22.30
2023-03-21T09:53:00.935Z,24.20
2023-03-21T09:55:38.162Z,19.70
2023-03-21T09:58:30.644Z,25.10
2023-03-21T10:18:28.947Z,27.10
2023-03-21T10:24:48.542Z,26.50
2023-03-21T10:31:07.759Z,25.90
2023-03-21T10:44:17.649Z,27.40
2023-03-21T10:46:57.143Z,25.60
2023-03-21T10:57:17.818Z,20.20
2023-03-21T11:12:49.925Z,25.70
2023-03-21T11:22:12.504Z,25.90
2023-03-21T11:32:13.831Z,24.80
2023-03-21T11:48:58.149Z,22.00
2023-03-21T11:59:02.905Z,21.70
2023-03-21T12:04:53.646Z,20.90
2023-03-21T12:07:58.355Z,22.50
2023-03-21T13:15:28.517Z,15.10
2023-03-21T13:18:26.433Z,16.10
2023-03-21T13:21:04.363Z,14.50
2023-03-21T13:23:39.275Z,13.90
2023-03-21T13:26:11.915Z,13.40
2023-03-21T13:28:41.088Z,13.40
2023-03-21T13:31:27.720Z,13.90
2023-03-21T13:33:59.469Z,14.40
2023-03-21T13:36:37.546Z,13.90
2023-03-21T13:39:06.360Z,12.70
2023-03-21T13:41:42.303Z,14.50
2023-03-21T13:55:04.489Z,15.10
2023-03-21T13:57:33.071Z,14.80
2023-03-21T14:03:24.172Z,15.80
2023-03-21T14:06:05.032Z,15.20
2023-03-21T14:08:58.543Z,14.80
2023-03-21T14:11:54.715Z,15.10
2023-03-21T14:15:20.568Z,15.00
2023-03-21T14:18:15.989Z,15.30
2023-03-21T14:21:09.212Z,15.10
2023-03-21T14:24:14.496Z,13.40
2023-03-21T14:27:19.833Z,14.90
2023-03-21T14:29:52.859Z,14.20
2023-03-21T14:32:28.613Z,15.20
2023-03-21T14:35:01.577Z,15.20
2023-03-21T14:40:37.524Z,16.80
2023-03-21T14:43:09.780Z,16.80
2023-03-21T14:45:41.210Z,15.70
2023-03-21T14:48:37.235Z,12.20
2023-03-21T14:53:50.872Z,14.70
2023-03-21T14:56:24.845Z,14.60
2023-03-21T14:58:54.905Z,13.90
2023-03-21T15:01:34.957Z,14.50
2023-03-21T15:04:06.068Z,14.40
2023-03-21T15:06:57.199Z,14.10
2023-03-21T15:09:30.317Z,13.40
2023-03-21T15:12:01.561Z,14.00
2023-03-21T15:14:41.449Z,17.80
2023-03-21T15:17:24.675Z,14.70
2023-03-21T15:19:52.114Z,13.00
2023-03-21T15:22:34.953Z,13.20
2023-03-21T15:25:12.294Z,13.60
2023-03-21T15:27:42.521Z,13.00
2023-03-21T15:30:27.923Z,12.90
2023-03-21T15:33:07.280Z,14.60
2023-03-21T15:36:09.327Z,16.50
2023-03-21T15:38:45.167Z,15.00
2023-03-21T15:41:19.815Z,16.00
2023-03-21T15:43:54.624Z,16.40
2023-03-21T15:46:53.963Z,16.80
2023-03-21T15:49:40.280Z,18.00
2023-03-21T15:52:16.484Z,17.40
2023-03-21T15:54:58.959Z,17.10
2023-03-21T15:57:32.282Z,18.20
2023-03-21T16:00:19.605Z,20.10
2023-03-21T16:02:53.070Z,18.30
2023-03-21T16:05:34.713Z,20.70
2023-03-21T16:08:31.061Z,19.30
2023-03-21T16:11:27.865Z,21.50
2023-03-21T16:13:56.445Z,22.20
2023-03-21T16:16:29.346Z,25.40
2023-03-21T16:18:59.533Z,25.60
2023-03-21T16:21:33.190Z,22.80
2023-03-21T16:24:01.709Z,21.30
2023-03-21T16:26:36.086Z,18.10
2023-03-21T16:29:06.112Z,15.40
2023-03-21T16:31:36.774Z,17.30
2023-03-21T16:34:04.859Z,17.00
2023-03-21T16:36:42.852Z,18.00
2023-03-21T16:39:17.547Z,17.30
2023-03-21T16:41:46.211Z,18.00
2023-03-21T16:44:14.888Z,19.10
2023-03-21T16:46:42.496Z,19.10
2023-03-21T16:49:26.275Z,18.60
2023-03-21T16:51:56.984Z,19.30
2023-03-21T16:54:25.430Z,19.70
2023-03-21T16:56:55.378Z,19.60
2023-03-21T16:59:23.434Z,21.80
2023-03-21T17:01:51.195Z,21.60
2023-03-21T17:04:20.473Z,22.60
2023-03-21T17:06:53.657Z,27.90
2023-03-21T17:09:26.798Z,33.70
2023-03-21T17:11:55.867Z,35.00
2023-03-21T17:14:24.198Z,34.00
2023-03-21T17:16:52.126Z,31.80
2023-03-21T17:22:17.121Z,29.10
2023-03-21T17:24:45.543Z,29.90
2023-03-21T17:27:43.470Z,29.80
2023-03-21T17:30:30.537Z,27.50
2023-03-21T17:33:01.925Z,25.90
2023-03-21T17:38:54.598Z,32.10
2023-03-21T17:41:23.157Z,29.90
2023-03-21T17:47:51.719Z,29.40
2023-03-21T17:50:23.602Z,32.10
2023-03-21T17:52:52.635Z,33.30
2023-03-21T17:55:20.756Z,32.60
2023-03-21T17:58:01.131Z,35.30
2023-03-21T18:00:37.036Z,35.90
2023-03-21T18:03:04.586Z,39.10
2023-03-21T18:05:34.105Z,41.30
2023-03-21T18:08:12.159Z,42.90
2023-03-21T18:11:44.821Z,41.40
2023-03-21T18:14:29.099Z,40.10
2023-03-21T18:17:00.862Z,39.20
2023-03-21T18:19:31.846Z,29.30
2023-03-21T18:22:05.704Z,37.50
2023-03-21T18:24:37.711Z,28.80
2023-03-21T18:27:06.290Z,28.60
2023-03-21T18:32:31.774Z,26.30
2023-03-21T18:35:00.009Z,25.80
2023-03-21T18:37:31.779Z,28.00
2023-03-21T18:40:22.363Z,25.90
2023-03-21T18:43:45.906Z,25.20
2023-03-21T18:45:40.720Z,24.90
2023-03-21T18:48:13.627Z,27.00
2023-03-21T18:50:42.611Z,26.90
2023-03-21T18:53:11.752Z,22.70
2023-03-21T18:55:46.260Z,26.20
2023-03-21T18:58:17.201Z,20.80
2023-03-21T19:00:46.199Z,18.70
2023-03-21T19:03:30.139Z,17.00
2023-03-21T19:06:09.500Z,16.10
2023-03-21T19:08:42.022Z,15.80
2023-03-21T19:11:11.222Z,14.20
2023-03-21T19:13:40.040Z,14.20
2023-03-21T19:16:11.347Z,15.00
2023-03-21T19:18:57.345Z,14.70
2023-03-21T19:21:26.573Z,13.90
2023-03-21T19:26:47.313Z,15.40
2023-03-21T19:29:16.419Z,15.10
2023-03-21T19:31:45.450Z,15.70
2023-03-21T19:34:14.198Z,14.10
2023-03-21T19:36:46.009Z,11.60
2023-03-21T19:39:22.874Z,9.60
2023-03-21T19:41:55.444Z,9.80
2023-03-21T19:44:30.411Z,10.40
2023-03-21T19:46:59.174Z,10.30
2023-03-21T19:49:48.516Z,11.30
2023-03-21T19:52:16.836Z,11.60
2023-03-21T19:54:45.592Z,11.90
2023-03-21T19:57:16.873Z,10.40
2023-03-21T19:59:45.646Z,11.20
2023-03-21T20:02:34.495Z,9.60
2023-03-21T20:05:06.851Z,10.10
2023-03-21T20:07:35.909Z,11.70
2023-03-21T20:10:08.914Z,16.40
2023-03-21T20:12:37.900Z,17.00
2023-03-21T20:15:17.007Z,14.00
2023-03-21T20:17:51.280Z,11.90
2023-03-21T20:20:20.539Z,12.50
2023-03-21T20:23:06.115Z,11.10
2023-03-21T20:25:47.285Z,11.90
2023-03-21T20:28:25.524Z,12.30
2023-03-21T20:30:58.643Z,11.90
2023-03-21T20:33:28.837Z,13.30
2023-03-21T20:36:37.402Z,13.10
2023-03-21T20:38:55.982Z,12.50
2023-03-21T20:41:24.653Z,12.40
2023-03-21T20:46:47.148Z,12.70
2023-03-21T20:49:16.161Z,12.50
2023-03-21T20:52:44.565Z,13.30
2023-03-21T20:54:34.924Z,12.60
2023-03-21T20:57:05.771Z,13.50
2023-03-21T20:59:35.853Z,13.10
2023-03-21T21:02:05.382Z,13.50
2023-03-21T21:04:49.853Z,12.70
2023-03-21T21:07:23.057Z,12.50
2023-03-21T21:09:51.723Z,13.20
2023-03-21T21:12:20.651Z,13.70
2023-03-21T21:14:49.347Z,12.10
2023-03-21T21:17:37.162Z,13.30
2023-03-21T21:20:18.634Z,12.80
2023-03-21T21:22:59.960Z,13.10
2023-03-21T21:25:33.449Z,13.10
2023-03-21T21:28:02.539Z,12.90
2023-03-21T21:30:32.767Z,12.80
2023-03-21T21:33:01.494Z,12.70
2023-03-21T21:35:30.096Z,14.00
2023-03-21T21:37:58.775Z,12.90
2023-03-21T21:40:27.499Z,14.40
2023-03-21T21:42:57.807Z,14.00
2023-03-21T21:45:26.520Z,14.30
2023-03-21T21:47:55.250Z,13.90
2023-03-21T21:53:46.589Z,15.20
2023-03-21T21:56:15.552Z,14.10
2023-03-21T21:58:47.210Z,14.10
2023-03-21T22:01:16.442Z,13.20
2023-03-21T22:03:46.313Z,13.50
2023-03-21T22:06:14.852Z,13.60
2023-03-21T22:08:47.095Z,13.70
2023-03-21T22:11:16.098Z,13.70
2023-03-21T22:13:45.723Z,14.80
2023-03-21T22:16:14.535Z,14.70
2023-03-21T22:18:43.658Z,15.70
2023-03-21T22:21:12.192Z,16.00
2023-03-21T22:23:43.440Z,18.40
2023-03-21T22:26:11.958Z,18.20
2023-03-21T22:28:42.332Z,15.50
2023-03-21T22:31:17.396Z,18.50
2023-03-21T22:33:46.288Z,16.70
2023-03-21T22:36:14.912Z,16.80
2023-03-21T22:38:44.009Z,17.60
2023-03-21T22:41:12.450Z,20.10
2023-03-21T22:43:40.938Z,20.30
2023-03-21T22:46:09.552Z,18.90
2023-03-21T22:48:38.171Z,16.50
2023-03-21T22:54:58.426Z,19.50
2023-03-21T22:57:25.719Z,19.60
2023-03-21T22:59:52.996Z,21.10
2023-03-21T23:02:20.195Z,21.20
2023-03-21T23:04:48.183Z,20.00
2023-03-21T23:07:16.189Z,21.00
2023-03-21T23:09:43.356Z,20.20
2023-03-21T23:12:10.645Z,18.70
2023-03-21T23:14:37.764Z,20.30
2023-03-21T23:17:04.790Z,20.70
2023-03-21T23:19:32.060Z,19.10
2023-03-21T23:21:59.249Z,18.10
2023-03-21T23:24:26.729Z,20.00
2023-03-21T23:26:53.922Z,20.40
2023-03-21T23:29:21.021Z,18.40
2023-03-21T23:31:48.366Z,19.50
2023-03-21T23:34:15.553Z,18.70
2023-03-21T23:36:42.781Z,19.10
2023-03-21T23:39:10.350Z,19.90
2023-03-21T23:41:37.654Z,19.20
2023-03-21T23:44:05.411Z,20.30
2023-03-21T23:46:32.565Z,20.10
2023-03-21T23:48:59.823Z,19.70
2023-03-21T23:51:27.025Z,19.70
2023-03-21T23:53:56.847Z,19.00
2023-03-21T23:56:26.452Z,19.90
2023-03-21T23:58:53.706Z,19.20
